sensor_id;sensor_type;location;lat;lon;timestamp;pressure;altitude;pressure_sealevel;temperature;humidity
10806;BME280;5455;53.224;6.000;2023-05-03T00:01:28;103017.47;;;7.35;100.00
10806;BME280;5455;53.224;6.000;2023-05-03T00:03:56;103020.78;;;7.27;100.00
10806;BME280;5455;53.224;6.000;2023-05-03T00:06:23;103023.03;;;7.20;100.00
10806;BME280;5455;53.224;6.000;2023-05-03T00:08:50;103022.75;;;7.21;100.00
10806;BME280;5455;53.224;6.000;2023-05-03T00:11:17;103024.66;;;7.26;100.00
10806;BME280;5455;53.224;6.000;2023-05-03T00:13:44;103026.84;;;7.29;100.00
10806;BME280;5455;53.224;6.000;2023-05-03T00:16:11;103022.66;;;7.37;100.00
10806;BME280;5455;53.224;6.000;2023-05-03T00:18:38;103026.19;;;7.42;100.00
10806;BME280;5455;53.224;6.000;2023-05-03T00:21:05;103021.53;;;7.43;100.00
10806;BME280;5455;53.224;6.000;2023-05-03T00:23:33;103022.88;;;7.45;100.00
10806;BME280;5455;53.224;6.000;2023-05-03T00:26:00;103022.84;;;7.50;100.00
10806;BME280;5455;53.224;6.000;2023-05-03T00:28:27;103013.22;;;7.53;100.00
10806;BME280;5455;53.224;6.000;2023-05-03T00:30:54;103018.41;;;7.54;100.00
10806;BME280;5455;53.224;6.000;2023-05-03T00:33:21;103023.91;;;7.54;100.00
10806;BME280;5455;53.224;6.000;2023-05-03T00:35:49;103023.38;;;7.52;100.00
10806;BME280;5455;53.224;6.000;2023-05-03T00:38:16;103019.53;;;7.53;100.00
10806;BME280;5455;53.224;6.000;2023-05-03T00:40:43;103023.34;;;7.57;100.00
10806;BME280;5455;53.224;6.000;2023-05-03T00:43:10;103024.41;;;7.61;100.00
10806;BME280;5455;53.224;6.000;2023-05-03T00:45:38;103021.16;;;7.59;100.00
10806;BME280;5455;53.224;6.000;2023-05-03T00:48:06;103029.09;;;7.61;100.00
10806;BME280;5455;53.224;6.000;2023-05-03T00:50:35;103018.16;;;7.56;100.00
10806;BME280;5455;53.224;6.000;2023-05-03T00:53:02;103024.16;;;7.58;100.00
10806;BME280;5455;53.224;6.000;2023-05-03T00:55:30;103021.97;;;7.60;100.00
10806;BME280;5455;53.224;6.000;2023-05-03T00:57:58;103023.91;;;7.59;100.00
10806;BME280;5455;53.224;6.000;2023-05-03T01:00:25;103022.81;;;7.55;100.00
10806;BME280;5455;53.224;6.000;2023-05-03T01:02:53;103028.88;;;7.52;100.00
10806;BME280;5455;53.224;6.000;2023-05-03T01:05:21;103030.78;;;7.52;100.00
10806;BME280;5455;53.224;6.000;2023-05-03T01:08:08;103021.47;;;7.53;100.00
10806;BME280;5455;53.224;6.000;2023-05-03T01:16:03;103023.34;;;7.57;100.00
10806;BME280;5455;53.224;6.000;2023-05-03T01:18:39;103017.53;;;7.64;100.00
10806;BME280;5455;53.224;6.000;2023-05-03T01:21:10;103026.03;;;7.67;100.00
10806;BME280;5455;53.224;6.000;2023-05-03T01:24:10;103022.19;;;7.68;100.00
10806;BME280;5455;53.224;6.000;2023-05-03T01:26:39;103017.50;;;7.69;100.00
10806;BME280;5455;53.224;6.000;2023-05-03T01:29:06;103018.56;;;7.73;100.00
10806;BME280;5455;53.224;6.000;2023-05-03T01:31:48;103016.63;;;7.73;100.00
10806;BME280;5455;53.224;6.000;2023-05-03T01:34:41;103009.22;;;7.74;100.00
10806;BME280;5455;53.224;6.000;2023-05-03T01:37:12;103007.81;;;7.76;100.00
10806;BME280;5455;53.224;6.000;2023-05-03T01:40:03;103012.75;;;7.80;100.00
10806;BME280;5455;53.224;6.000;2023-05-03T01:42:37;103013.03;;;7.78;100.00
10806;BME280;5455;53.224;6.000;2023-05-03T01:45:05;103009.75;;;7.76;100.00
10806;BME280;5455;53.224;6.000;2023-05-03T01:47:32;103003.16;;;7.77;100.00
10806;BME280;5455;53.224;6.000;2023-05-03T01:50:00;103008.91;;;7.75;100.00
10806;BME280;5455;53.224;6.000;2023-05-03T01:52:27;103000.16;;;7.73;100.00
10806;BME280;5455;53.224;6.000;2023-05-03T01:54:54;103008.16;;;7.70;100.00
10806;BME280;5455;53.224;6.000;2023-05-03T01:57:23;103012.03;;;7.69;100.00
10806;BME280;5455;53.224;6.000;2023-05-03T01:59:50;103019.13;;;7.70;100.00
10806;BME280;5455;53.224;6.000;2023-05-03T02:02:17;103011.72;;;7.70;100.00
10806;BME280;5455;53.224;6.000;2023-05-03T02:04:44;103004.56;;;7.69;100.00
10806;BME280;5455;53.224;6.000;2023-05-03T02:07:11;103005.16;;;7.66;100.00
10806;BME280;5455;53.224;6.000;2023-05-03T02:09:38;103003.81;;;7.64;100.00
10806;BME280;5455;53.224;6.000;2023-05-03T02:12:05;102992.56;;;7.65;100.00
10806;BME280;5455;53.224;6.000;2023-05-03T02:14:32;102999.66;;;7.66;100.00
10806;BME280;5455;53.224;6.000;2023-05-03T02:16:59;102996.41;;;7.64;100.00
10806;BME280;5455;53.224;6.000;2023-05-03T02:19:29;103000.22;;;7.68;100.00
10806;BME280;5455;53.224;6.000;2023-05-03T02:21:55;102994.66;;;7.73;100.00
10806;BME280;5455;53.224;6.000;2023-05-03T02:24:24;103002.63;;;7.75;100.00
10806;BME280;5455;53.224;6.000;2023-05-03T02:26:51;103008.13;;;7.75;100.00
10806;BME280;5455;53.224;6.000;2023-05-03T02:29:18;103005.59;;;7.78;100.00
10806;BME280;5455;53.224;6.000;2023-05-03T02:31:45;103005.59;;;7.78;100.00
10806;BME280;5455;53.224;6.000;2023-05-03T02:34:12;103002.63;;;7.75;100.00
10806;BME280;5455;53.224;6.000;2023-05-03T02:36:39;103011.97;;;7.74;100.00
10806;BME280;5455;53.224;6.000;2023-05-03T02:39:06;103015.25;;;7.76;100.00
10806;BME280;5455;53.224;6.000;2023-05-03T02:41:33;103009.22;;;7.74;100.00
10806;BME280;5455;53.224;6.000;2023-05-03T02:44:01;102997.72;;;7.72;100.00
10806;BME280;5455;53.224;6.000;2023-05-03T02:46:28;103005.13;;;7.71;100.00
10806;BME280;5455;53.224;6.000;2023-05-03T02:48:55;102995.25;;;7.70;100.00
10806;BME280;5455;53.224;6.000;2023-05-03T02:51:23;102998.28;;;7.69;100.00
10806;BME280;5455;53.224;6.000;2023-05-03T02:53:50;102994.16;;;7.71;100.00
10806;BME280;5455;53.224;6.000;2023-05-03T02:56:17;102983.16;;;7.71;100.00
10806;BME280;5455;53.224;6.000;2023-05-03T02:58:44;102980.69;;;7.70;100.00
10806;BME280;5455;53.224;6.000;2023-05-03T03:01:12;102983.19;;;7.66;100.00
10806;BME280;5455;53.224;6.000;2023-05-03T03:03:39;102976.91;;;7.66;100.00
10806;BME280;5455;53.224;6.000;2023-05-03T03:06:07;102971.16;;;7.62;100.00
10806;BME280;5455;53.224;6.000;2023-05-03T03:08:35;102967.63;;;7.57;100.00
10806;BME280;5455;53.224;6.000;2023-05-03T03:11:04;102964.06;;;7.56;100.00
10806;BME280;5455;53.224;6.000;2023-05-03T03:13:32;102966.00;;;7.56;100.00
10806;BME280;5455;53.224;6.000;2023-05-03T03:16:00;102979.47;;;7.52;100.00
10806;BME280;5455;53.224;6.000;2023-05-03T03:18:27;102976.19;;;7.50;100.00
10806;BME280;5455;53.224;6.000;2023-05-03T03:20:54;102965.22;;;7.45;100.00
10806;BME280;5455;53.224;6.000;2023-05-03T03:23:22;102972.41;;;7.41;100.00
10806;BME280;5455;53.224;6.000;2023-05-03T03:25:49;102968.34;;;7.34;100.00
10806;BME280;5455;53.224;6.000;2023-05-03T03:28:17;102969.72;;;7.31;100.00
10806;BME280;5455;53.224;6.000;2023-05-03T03:30:45;102980.75;;;7.26;100.00
10806;BME280;5455;53.224;6.000;2023-05-03T03:33:21;102981.03;;;7.25;100.00
10806;BME280;5455;53.224;6.000;2023-05-03T03:35:53;102980.50;;;7.22;100.00
10806;BME280;5455;53.224;6.000;2023-05-03T03:38:24;102981.91;;;7.15;100.00
10806;BME280;5455;53.224;6.000;2023-05-03T03:40:57;102982.78;;;7.10;100.00
10806;BME280;5455;53.224;6.000;2023-05-03T03:43:25;102984.72;;;7.05;100.00
10806;BME280;5455;53.224;6.000;2023-05-03T03:45:52;102985.03;;;6.98;100.00
10806;BME280;5455;53.224;6.000;2023-05-03T03:48:20;102991.94;;;6.91;100.00
10806;BME280;5455;53.224;6.000;2023-05-03T03:50:47;102994.97;;;6.79;100.00
10806;BME280;5455;53.224;6.000;2023-05-03T03:53:16;102990.13;;;6.66;100.00
10806;BME280;5455;53.224;6.000;2023-05-03T03:55:43;102998.41;;;6.51;100.00
10806;BME280;5455;53.224;6.000;2023-05-03T03:58:12;103005.28;;;6.38;100.00
10806;BME280;5455;53.224;6.000;2023-05-03T04:00:39;103003.94;;;6.31;100.00
10806;BME280;5455;53.224;6.000;2023-05-03T04:03:12;103007.78;;;6.25;100.00
10806;BME280;5455;53.224;6.000;2023-05-03T04:05:40;103007.78;;;6.25;100.00
10806;BME280;5455;53.224;6.000;2023-05-03T04:08:07;103011.88;;;6.27;100.00
10806;BME280;5455;53.224;6.000;2023-05-03T04:10:35;103006.69;;;6.31;100.00
10806;BME280;5455;53.224;6.000;2023-05-03T04:13:03;103009.41;;;6.31;100.00
10806;BME280;5455;53.224;6.000;2023-05-03T04:15:30;103008.59;;;6.30;100.00
10806;BME280;5455;53.224;6.000;2023-05-03T04:17:59;103016.81;;;6.30;100.00
10806;BME280;5455;53.224;6.000;2023-05-03T04:20:26;103011.59;;;6.34;100.00
10806;BME280;5455;53.224;6.000;2023-05-03T04:22:54;103012.13;;;6.36;100.00
10806;BME280;5455;53.224;6.000;2023-05-03T04:25:25;103017.06;;;6.39;100.00
10806;BME280;5455;53.224;6.000;2023-05-03T04:27:58;103023.34;;;6.44;100.00
10806;BME280;5455;53.224;6.000;2023-05-03T04:30:27;103032.66;;;6.48;100.00
10806;BME280;5455;53.224;6.000;2023-05-03T04:32:58;103027.16;;;6.53;100.00
10806;BME280;5455;53.224;6.000;2023-05-03T04:35:28;103031.53;;;6.59;100.00
10806;BME280;5455;53.224;6.000;2023-05-03T04:37:58;103035.91;;;6.65;100.00
10806;BME280;5455;53.224;6.000;2023-05-03T04:40:26;103036.69;;;6.71;100.00
10806;BME280;5455;53.224;6.000;2023-05-03T04:43:04;103028.16;;;6.83;100.00
10806;BME280;5455;53.224;6.000;2023-05-03T04:45:35;103038.78;;;6.94;100.00
10806;BME280;5455;53.224;6.000;2023-05-03T04:48:03;103040.16;;;7.02;100.00
10806;BME280;5455;53.224;6.000;2023-05-03T04:50:32;103036.81;;;7.10;100.00
10806;BME280;5455;53.224;6.000;2023-05-03T04:52:59;103045.81;;;7.15;100.00
10806;BME280;5455;53.224;6.000;2023-05-03T04:55:28;103044.44;;;7.23;100.00
10806;BME280;5455;53.224;6.000;2023-05-03T04:57:57;103046.56;;;7.31;100.00
10806;BME280;5455;53.224;6.000;2023-05-03T05:00:25;103044.34;;;7.38;100.00
10806;BME280;5455;53.224;6.000;2023-05-03T05:02:57;103047.31;;;7.47;100.00
10806;BME280;5455;53.224;6.000;2023-05-03T05:05:27;103050.31;;;7.50;100.00
10806;BME280;5455;53.224;6.000;2023-05-03T05:07:57;103038.75;;;7.53;100.00
10806;BME280;5455;53.224;6.000;2023-05-03T05:10:28;103043.38;;;7.58;100.00
10806;BME280;5455;53.224;6.000;2023-05-03T05:12:56;103043.03;;;7.69;100.00
10806;BME280;5455;53.224;6.000;2023-05-03T05:15:24;103042.44;;;7.78;100.00
10806;BME280;5455;53.224;6.000;2023-05-03T05:17:51;103045.66;;;7.85;100.00
10806;BME280;5455;53.224;6.000;2023-05-03T05:20:19;103042.06;;;7.89;100.00
10806;BME280;5455;53.224;6.000;2023-05-03T05:22:48;103050.56;;;7.93;100.00
10806;BME280;5455;53.224;6.000;2023-05-03T05:25:15;103048.28;;;8.00;100.00
10806;BME280;5455;53.224;6.000;2023-05-03T05:27:42;103057.78;;;8.12;100.00
10806;BME280;5455;53.224;6.000;2023-05-03T05:30:10;103059.91;;;8.20;100.00
10806;BME280;5455;53.224;6.000;2023-05-03T05:32:39;103053.00;;;8.28;100.00
10806;BME280;5455;53.224;6.000;2023-05-03T05:35:10;103055.44;;;8.35;100.00
10806;BME280;5455;53.224;6.000;2023-05-03T05:37:37;103056.72;;;8.42;100.00
10806;BME280;5455;53.224;6.000;2023-05-03T05:40:05;103054.97;;;8.51;100.00
10806;BME280;5455;53.224;6.000;2023-05-03T05:42:39;103059.31;;;8.57;100.00
10806;BME280;5455;53.224;6.000;2023-05-03T05:45:07;103053.22;;;8.60;100.00
10806;BME280;5455;53.224;6.000;2023-05-03T05:47:36;103058.13;;;8.63;100.00
10806;BME280;5455;53.224;6.000;2023-05-03T05:50:04;103063.06;;;8.66;100.00
10806;BME280;5455;53.224;6.000;2023-05-03T05:52:43;103053.13;;;8.70;100.00
10806;BME280;5455;53.224;6.000;2023-05-03T05:55:12;103066.28;;;8.73;100.00
10806;BME280;5455;53.224;6.000;2023-05-03T05:57:40;103063.19;;;8.80;100.00
10806;BME280;5455;53.224;6.000;2023-05-03T06:00:09;103072.44;;;8.89;100.00
10806;BME280;5455;53.224;6.000;2023-05-03T06:02:42;103072.03;;;9.01;100.00
10806;BME280;5455;53.224;6.000;2023-05-03T06:05:17;103077.97;;;9.08;100.00
10806;BME280;5455;53.224;6.000;2023-05-03T06:07:44;103071.16;;;9.24;100.00
10806;BME280;5455;53.224;6.000;2023-05-03T06:10:12;103067.69;;;9.37;100.00
10806;BME280;5455;53.224;6.000;2023-05-03T06:12:44;103072.44;;;9.50;100.00
10806;BME280;5455;53.224;6.000;2023-05-03T06:15:15;103074.75;;;9.62;100.00
10806;BME280;5455;53.224;6.000;2023-05-03T06:17:43;103075.53;;;9.67;100.00
10806;BME280;5455;53.224;6.000;2023-05-03T06:20:11;103064.09;;;9.74;100.00
10806;BME280;5455;53.224;6.000;2023-05-03T06:22:40;103069.31;;;9.75;100.00
10806;BME280;5455;53.224;6.000;2023-05-03T06:25:09;103072.09;;;9.75;100.00
10806;BME280;5455;53.224;6.000;2023-05-03T06:27:45;103064.19;;;9.87;100.00
10806;BME280;5455;53.224;6.000;2023-05-03T06:30:13;103068.78;;;9.92;100.00
10806;BME280;5455;53.224;6.000;2023-05-03T06:32:41;103076.53;;;9.90;100.00
10806;BME280;5455;53.224;6.000;2023-05-03T06:35:10;103071.16;;;9.98;100.00
10806;BME280;5455;53.224;6.000;2023-05-03T06:37:39;103075.56;;;10.00;100.00
10806;BME280;5455;53.224;6.000;2023-05-03T06:40:06;103079.03;;;10.05;95.32
10806;BME280;5455;53.224;6.000;2023-05-03T06:42:35;103075.56;;;10.00;91.90
10806;BME280;5455;53.224;6.000;2023-05-03T06:45:09;103078.09;;;10.15;91.09
10806;BME280;5455;53.224;6.000;2023-05-03T06:47:37;103078.72;;;10.25;90.83
10806;BME280;5455;53.224;6.000;2023-05-03T06:50:06;103079.53;;;10.26;89.82
10806;BME280;5455;53.224;6.000;2023-05-03T06:52:33;103085.22;;;10.16;88.64
10806;BME280;5455;53.224;6.000;2023-05-03T06:55:00;103083.59;;;10.15;88.60
10806;BME280;5455;53.224;6.000;2023-05-03T06:57:27;103078.66;;;10.30;89.02
10806;BME280;5455;53.224;6.000;2023-05-03T06:59:54;103077.22;;;10.33;88.57
10806;BME280;5455;53.224;6.000;2023-05-03T07:02:21;103080.00;;;10.33;90.18
10806;BME280;5455;53.224;6.000;2023-05-03T07:04:48;103080.81;;;10.33;91.05
10806;BME280;5455;53.224;6.000;2023-05-03T07:07:16;103077.34;;;10.41;90.51
10806;BME280;5455;53.224;6.000;2023-05-03T07:09:43;103084.91;;;10.49;89.33
10806;BME280;5455;53.224;6.000;2023-05-03T07:12:12;103077.88;;;10.57;88.85
10806;BME280;5455;53.224;6.000;2023-05-03T07:14:39;103084.94;;;10.63;89.48
10806;BME280;5455;53.224;6.000;2023-05-03T07:17:06;103082.09;;;10.68;87.33
10806;BME280;5455;53.224;6.000;2023-05-03T07:19:34;103075.75;;;10.68;85.50
10806;BME280;5455;53.224;6.000;2023-05-03T07:22:00;103082.91;;;10.69;84.42
10806;BME280;5455;53.224;6.000;2023-05-03T07:24:29;103082.91;;;10.82;85.67
10806;BME280;5455;53.224;6.000;2023-05-03T07:26:55;103083.94;;;10.86;83.63
10806;BME280;5455;53.224;6.000;2023-05-03T07:29:23;103082.09;;;10.68;81.48
10806;BME280;5455;53.224;6.000;2023-05-03T07:31:52;103081.47;;;10.85;82.18
10806;BME280;5455;53.224;6.000;2023-05-03T07:34:20;103083.31;;;10.89;78.83
10806;BME280;5455;53.224;6.000;2023-05-03T07:36:47;103075.75;;;10.68;77.53
10806;BME280;5455;53.224;6.000;2023-05-03T07:39:17;103078.81;;;10.80;77.18
10806;BME280;5455;53.224;6.000;2023-05-03T07:41:44;103073.31;;;10.80;76.27
10806;BME280;5455;53.224;6.000;2023-05-03T07:44:11;103074.03;;;10.99;78.79
10806;BME280;5455;53.224;6.000;2023-05-03T07:46:38;103076.69;;;10.90;77.20
10806;BME280;5455;53.224;6.000;2023-05-03T07:49:05;103078.09;;;10.88;76.04
10806;BME280;5455;53.224;6.000;2023-05-03T07:51:36;103077.78;;;10.76;74.08
10806;BME280;5455;53.224;6.000;2023-05-03T07:54:04;103074.00;;;10.85;77.45
10806;BME280;5455;53.224;6.000;2023-05-03T07:56:31;103078.22;;;10.83;78.54
10806;BME280;5455;53.224;6.000;2023-05-03T07:58:58;103085.25;;;10.89;78.64
10806;BME280;5455;53.224;6.000;2023-05-03T08:01:29;103076.88;;;11.07;79.35
10806;BME280;5455;53.224;6.000;2023-05-03T08:03:56;103068.38;;;11.18;79.06
10806;BME280;5455;53.224;6.000;2023-05-03T08:06:24;103064.78;;;11.31;77.45
10806;BME280;5455;53.224;6.000;2023-05-03T08:08:52;103064.38;;;11.24;77.62
10806;BME280;5455;53.224;6.000;2023-05-03T08:11:19;103061.59;;;11.24;77.50
10806;BME280;5455;53.224;6.000;2023-05-03T08:13:46;103062.91;;;11.40;78.44
10806;BME280;5455;53.224;6.000;2023-05-03T08:16:13;103067.69;;;11.48;77.50
10806;BME280;5455;53.224;6.000;2023-05-03T08:18:40;103066.50;;;11.40;76.33
10806;BME280;5455;53.224;6.000;2023-05-03T08:21:07;103070.34;;;11.17;77.78
10806;BME280;5455;53.224;6.000;2023-05-03T08:23:36;103076.34;;;11.19;78.17
10806;BME280;5455;53.224;6.000;2023-05-03T08:26:04;103077.69;;;11.22;78.76
10806;BME280;5455;53.224;6.000;2023-05-03T08:28:33;103082.28;;;11.26;79.29
10806;BME280;5455;53.224;6.000;2023-05-03T08:31:00;103082.09;;;11.23;79.03
10806;BME280;5455;53.224;6.000;2023-05-03T08:33:30;103075.41;;;11.24;77.82
10806;BME280;5455;53.224;6.000;2023-05-03T08:35:58;103085.56;;;11.28;77.44
10806;BME280;5455;53.224;6.000;2023-05-03T08:38:25;103085.56;;;11.28;77.57
10806;BME280;5455;53.224;6.000;2023-05-03T08:40:53;103081.88;;;11.05;77.76
10806;BME280;5455;53.224;6.000;2023-05-03T08:43:22;103080.97;;;11.10;78.55
10806;BME280;5455;53.224;6.000;2023-05-03T08:45:52;103071.78;;;10.87;78.16
10806;BME280;5455;53.224;6.000;2023-05-03T08:48:19;103081.88;;;11.05;81.01
10806;BME280;5455;53.224;6.000;2023-05-03T08:50:48;103085.66;;;11.23;78.32
10806;BME280;5455;53.224;6.000;2023-05-03T08:53:17;103066.38;;;11.45;76.46
10806;BME280;5455;53.224;6.000;2023-05-03T08:55:44;103077.78;;;11.66;76.90
10806;BME280;5455;53.224;6.000;2023-05-03T08:58:11;103090.03;;;11.87;74.55
10806;BME280;5455;53.224;6.000;2023-05-03T09:00:39;103079.34;;;11.58;73.29
10806;BME280;5455;53.224;6.000;2023-05-03T09:03:11;103076.88;;;11.57;74.51
10806;BME280;5455;53.224;6.000;2023-05-03T09:05:38;103077.00;;;11.52;72.77
10806;BME280;5455;53.224;6.000;2023-05-03T09:08:10;103084.31;;;11.34;73.68
10806;BME280;5455;53.224;6.000;2023-05-03T09:10:40;103087.25;;;11.51;72.36
10806;BME280;5455;53.224;6.000;2023-05-03T09:13:08;103089.19;;;11.51;72.94
10806;BME280;5455;53.224;6.000;2023-05-03T09:15:36;103091.59;;;11.66;71.98
10806;BME280;5455;53.224;6.000;2023-05-03T09:18:17;103092.72;;;11.79;71.98
10806;BME280;5455;53.224;6.000;2023-05-03T09:20:46;103081.59;;;11.70;71.48
10806;BME280;5455;53.224;6.000;2023-05-03T09:25:53;103087.66;;;11.45;72.34
10806;BME280;5455;53.224;6.000;2023-05-03T09:28:20;103092.81;;;11.38;72.45
10806;BME280;5455;53.224;6.000;2023-05-03T09:30:48;103090.47;;;11.18;71.33
10806;BME280;5455;53.224;6.000;2023-05-03T09:33:16;103096.31;;;11.16;71.92
10806;BME280;5455;53.224;6.000;2023-05-03T09:35:56;103099.59;;;11.04;71.21
10806;BME280;5455;53.224;6.000;2023-05-03T09:38:25;103107.13;;;10.85;72.38
10806;BME280;5455;53.224;6.000;2023-05-03T09:40:53;103088.84;;;11.17;74.40
10806;BME280;5455;53.224;6.000;2023-05-03T09:43:20;103102.03;;;11.20;73.66
10806;BME280;5455;53.224;6.000;2023-05-03T09:45:47;103104.19;;;11.23;73.94
10806;BME280;5455;53.224;6.000;2023-05-03T09:48:14;103102.31;;;11.32;74.15
10806;BME280;5455;53.224;6.000;2023-05-03T09:50:42;103103.66;;;11.21;73.71
10806;BME280;5455;53.224;6.000;2023-05-03T09:53:09;103107.63;;;11.15;73.43
10806;BME280;5455;53.224;6.000;2023-05-03T09:55:39;103099.56;;;11.32;73.88
10806;BME280;5455;53.224;6.000;2023-05-03T09:58:07;103107.81;;;11.45;71.83
10806;BME280;5455;53.224;6.000;2023-05-03T10:00:38;103112.31;;;11.55;70.36
10806;BME280;5455;53.224;6.000;2023-05-03T10:03:11;103100.81;;;11.75;71.75
10806;BME280;5455;53.224;6.000;2023-05-03T10:05:43;103103.19;;;11.68;70.73
10806;BME280;5455;53.224;6.000;2023-05-03T10:10:47;103109.63;;;11.77;68.63
10806;BME280;5455;53.224;6.000;2023-05-03T10:13:17;103112.59;;;12.03;69.29
10806;BME280;5455;53.224;6.000;2023-05-03T10:15:45;103114.53;;;12.47;66.95
10806;BME280;5455;53.224;6.000;2023-05-03T10:18:15;103110.47;;;12.22;67.52
10806;BME280;5455;53.224;6.000;2023-05-03T10:20:49;103116.47;;;12.77;67.59
10806;BME280;5455;53.224;6.000;2023-05-03T10:23:20;103109.03;;;12.86;64.45
10806;BME280;5455;53.224;6.000;2023-05-03T10:28:39;103103.31;;;12.21;66.05
10806;BME280;5455;53.224;6.000;2023-05-03T10:31:45;103105.63;;;12.28;65.60
10806;BME280;5455;53.224;6.000;2023-05-03T10:34:23;103105.38;;;12.15;65.01
10806;BME280;5455;53.224;6.000;2023-05-03T10:36:52;103102.56;;;12.60;65.58
10806;BME280;5455;53.224;6.000;2023-05-03T10:39:20;103108.38;;;12.89;64.00
10806;BME280;5455;53.224;6.000;2023-05-03T10:42:07;103107.06;;;13.09;62.92
10806;BME280;5455;53.224;6.000;2023-05-03T10:44:39;103109.22;;;13.29;61.79
10806;BME280;5455;53.224;6.000;2023-05-03T10:47:14;103110.22;;;13.33;61.50
10806;BME280;5455;53.224;6.000;2023-05-03T10:49:43;103119.28;;;13.16;61.19
10806;BME280;5455;53.224;6.000;2023-05-03T10:55:08;103097.53;;;13.01;61.85
10806;BME280;5455;53.224;6.000;2023-05-03T10:57:37;103094.03;;;13.18;60.41
10806;BME280;5455;53.224;6.000;2023-05-03T11:03:02;103109.41;;;13.41;59.86
10806;BME280;5455;53.224;6.000;2023-05-03T11:05:35;103109.94;;;13.52;59.40
10806;BME280;5455;53.224;6.000;2023-05-03T11:08:15;103098.97;;;13.47;59.00
10806;BME280;5455;53.224;6.000;2023-05-03T11:10:44;103093.97;;;13.66;58.44
10806;BME280;5455;53.224;6.000;2023-05-03T11:13:12;103100.69;;;13.08;58.41
10806;BME280;5455;53.224;6.000;2023-05-03T11:15:39;103090.50;;;12.95;59.26
10806;BME280;5455;53.224;6.000;2023-05-03T11:18:08;103089.63;;;13.17;58.84
10806;BME280;5455;53.224;6.000;2023-05-03T11:20:35;103087.13;;;13.07;58.33
10806;BME280;5455;53.224;6.000;2023-05-03T11:23:04;103078.88;;;13.15;59.17
10806;BME280;5455;53.224;6.000;2023-05-03T11:25:32;103088.56;;;13.52;56.86
10806;BME280;5455;53.224;6.000;2023-05-03T11:28:00;103086.13;;;13.76;57.26
10806;BME280;5455;53.224;6.000;2023-05-03T11:30:33;103081.53;;;13.38;58.78
10806;BME280;5455;53.224;6.000;2023-05-03T11:33:02;103094.28;;;13.64;56.83
10806;BME280;5455;53.224;6.000;2023-05-03T11:35:29;103084.34;;;13.80;56.74
10806;BME280;5455;53.224;6.000;2023-05-03T11:37:58;103082.16;;;13.26;56.23
10806;BME280;5455;53.224;6.000;2023-05-03T11:40:25;103073.81;;;13.17;57.97
10806;BME280;5455;53.224;6.000;2023-05-03T11:42:54;103071.28;;;13.64;57.96
10806;BME280;5455;53.224;6.000;2023-05-03T11:45:24;103079.59;;;13.90;57.49
10806;BME280;5455;53.224;6.000;2023-05-03T11:47:52;103078.63;;;13.60;55.16
10806;BME280;5455;53.224;6.000;2023-05-03T11:53:17;103066.81;;;14.31;54.84
10806;BME280;5455;53.224;6.000;2023-05-03T11:55:46;103066.69;;;14.19;54.51
10806;BME280;5455;53.224;6.000;2023-05-03T11:58:16;103063.75;;;14.07;56.79
10806;BME280;5455;53.224;6.000;2023-05-03T12:00:49;103064.28;;;13.84;56.58
10806;BME280;5455;53.224;6.000;2023-05-03T12:03:20;103062.00;;;13.60;56.77
10806;BME280;5455;53.224;6.000;2023-05-03T12:05:51;103074.28;;;13.11;57.70
10806;BME280;5455;53.224;6.000;2023-05-03T12:08:27;103047.19;;;12.99;59.30
10806;BME280;5455;53.224;6.000;2023-05-03T12:10:59;103047.66;;;13.75;59.48
10806;BME280;5455;53.224;6.000;2023-05-03T12:13:31;103041.94;;;13.54;57.87
10806;BME280;5455;53.224;6.000;2023-05-03T12:16:01;103044.06;;;13.49;58.09
10806;BME280;5455;53.224;6.000;2023-05-03T12:18:51;103046.31;;;13.64;58.65
10806;BME280;5455;53.224;6.000;2023-05-03T12:21:23;103038.00;;;13.55;58.49
10806;BME280;5455;53.224;6.000;2023-05-03T12:23:53;103038.16;;;13.33;59.54
10806;BME280;5455;53.224;6.000;2023-05-03T12:26:24;103034.75;;;13.28;58.74
10806;BME280;5455;53.224;6.000;2023-05-03T12:28:52;103048.94;;;13.52;59.34
10806;BME280;5455;53.224;6.000;2023-05-03T12:31:23;103038.50;;;13.57;57.24
10806;BME280;5455;53.224;6.000;2023-05-03T12:33:53;103032.97;;;13.57;56.90
10806;BME280;5455;53.224;6.000;2023-05-03T12:36:40;103032.16;;;13.57;56.82
10806;BME280;5455;53.224;6.000;2023-05-03T12:39:09;103027.06;;;13.76;56.07
10806;BME280;5455;53.224;6.000;2023-05-03T12:41:41;103032.31;;;13.69;55.51
10806;BME280;5455;53.224;6.000;2023-05-03T12:44:18;103021.84;;;13.92;56.43
10806;BME280;5455;53.224;6.000;2023-05-03T12:46:49;103023.78;;;14.08;55.33
10806;BME280;5455;53.224;6.000;2023-05-03T12:49:19;103025.31;;;13.46;55.91
10806;BME280;5455;53.224;6.000;2023-05-03T12:51:49;103016.66;;;13.21;57.54
10806;BME280;5455;53.224;6.000;2023-05-03T12:54:36;103019.03;;;13.06;57.63
10806;BME280;5455;53.224;6.000;2023-05-03T12:57:08;103017.78;;;13.38;56.89
10806;BME280;5455;53.224;6.000;2023-05-03T12:59:41;103020.34;;;13.94;56.32
10806;BME280;5455;53.224;6.000;2023-05-03T13:02:16;103024.44;;;13.88;54.94
10806;BME280;5455;53.224;6.000;2023-05-03T13:05:03;103018.28;;;13.40;56.98
10806;BME280;5455;53.224;6.000;2023-05-03T13:07:46;103016.16;;;13.54;57.12
10806;BME280;5455;53.224;6.000;2023-05-03T13:10:22;103020.22;;;13.22;56.44
10806;BME280;5455;53.224;6.000;2023-05-03T13:12:50;103008.91;;;13.01;57.75
10806;BME280;5455;53.224;6.000;2023-05-03T13:15:17;103006.59;;;12.95;56.53
10806;BME280;5455;53.224;6.000;2023-05-03T13:17:44;102997.78;;;12.76;58.16
10806;BME280;5455;53.224;6.000;2023-05-03T13:20:14;103000.41;;;12.98;57.84
10806;BME280;5455;53.224;6.000;2023-05-03T13:22:41;102988.78;;;13.27;58.22
10806;BME280;5455;53.224;6.000;2023-05-03T13:25:08;102979.97;;;13.42;56.81
10806;BME280;5455;53.224;6.000;2023-05-03T13:27:35;102983.38;;;13.64;56.91
10806;BME280;5455;53.224;6.000;2023-05-03T13:30:02;102981.75;;;13.72;56.63
10806;BME280;5455;53.224;6.000;2023-05-03T13:32:30;102972.53;;;14.14;56.59
10806;BME280;5455;53.224;6.000;2023-05-03T13:34:59;102982.50;;;13.98;54.91